Weather at Dolneni Airport [CLOSED]

Public forecast

Using degrees Celsius for public forecast. Weather courtesy of forecast.io.

Closest aviation weather report (METAR) to Dolneni Airport

Closest report is Skopje International Airport, 33.2 nm (61.6 km) NNE.

2024/05/26 18:20 (retrieved 9 minutes ago)

LWSK 261820Z VRB01KT 9999 SCT040 17/15 Q1016 NOSIG

Closest aviation forecast (TAF) to Dolneni Airport

Closest forecast is Skopje International Airport, 33.2 nm (61.6 km) NNE.

2024/05/26 18:51 (retrieved 0 seconds ago)

TAF LWSK 261745Z 2618/2718 VRB03KT 9999 FEW040